sensor_id;sensor_type;location;lat;lon;timestamp;P1;P2;P0
59153;PMS5003;44935;48.944;9.418;2024-03-23T00:55:13;8;5;
59153;PMS5003;44935;48.944;9.418;2024-03-23T00:57:40;2;2;
59153;PMS5003;44935;48.944;9.418;2024-03-23T01:00:07;6;4;
59153;PMS5003;44935;48.944;9.418;2024-03-23T01:02:35;3;3;
59153;PMS5003;44935;48.944;9.418;2024-03-23T01:05:02;2;2;
59153;PMS5003;44935;48.944;9.418;2024-03-23T01:07:30;3;2;
59153;PMS5003;44935;48.944;9.418;2024-03-23T01:09:57;6;6;
59153;PMS5003;44935;48.944;9.418;2024-03-23T01:12:24;6;4;
59153;PMS5003;44935;48.944;9.418;2024-03-23T01:14:51;6;5;
59153;PMS5003;44935;48.944;9.418;2024-03-23T01:17:18;3;2;
59153;PMS5003;44935;48.944;9.418;2024-03-23T01:19:45;4;2;
59153;PMS5003;44935;48.944;9.418;2024-03-23T01:22:12;7;5;
59153;PMS5003;44935;48.944;9.418;2024-03-23T01:24:39;6;3;
59153;PMS5003;44935;48.944;9.418;2024-03-23T01:27:06;2;2;
59153;PMS5003;44935;48.944;9.418;2024-03-23T01:29:33;2;2;
59153;PMS5003;44935;48.944;9.418;2024-03-23T01:31:59;4;4;
59153;PMS5003;44935;48.944;9.418;2024-03-23T01:34:26;4;3;
59153;PMS5003;44935;48.944;9.418;2024-03-23T01:36:53;5;2;
59153;PMS5003;44935;48.944;9.418;2024-03-23T01:39:20;5;4;
59153;PMS5003;44935;48.944;9.418;2024-03-23T01:41:47;4;2;
59153;PMS5003;44935;48.944;9.418;2024-03-23T01:44:14;2;1;
59153;PMS5003;44935;48.944;9.418;2024-03-23T01:46:42;1;1;
59153;PMS5003;44935;48.944;9.418;2024-03-23T01:49:10;3;2;
59153;PMS5003;44935;48.944;9.418;2024-03-23T01:51:39;3;2;
59153;PMS5003;44935;48.944;9.418;2024-03-23T01:54:06;3;2;
59153;PMS5003;44935;48.944;9.418;2024-03-23T01:56:34;4;2;
59153;PMS5003;44935;48.944;9.418;2024-03-23T01:59:02;2;2;
59153;PMS5003;44935;48.944;9.418;2024-03-23T02:01:30;3;3;
59153;PMS5003;44935;48.944;9.418;2024-03-23T02:03:58;3;3;
59153;PMS5003;44935;48.944;9.418;2024-03-23T02:06:25;5;2;
59153;PMS5003;44935;48.944;9.418;2024-03-23T02:08:52;3;2;
59153;PMS5003;44935;48.944;9.418;2024-03-23T02:11:20;3;1;
59153;PMS5003;44935;48.944;9.418;2024-03-23T02:13:47;2;2;
59153;PMS5003;44935;48.944;9.418;2024-03-23T02:16:14;2;2;
59153;PMS5003;44935;48.944;9.418;2024-03-23T02:18:41;4;3;
59153;PMS5003;44935;48.944;9.418;2024-03-23T02:21:08;1;1;
59153;PMS5003;44935;48.944;9.418;2024-03-23T02:23:35;1;1;
59153;PMS5003;44935;48.944;9.418;2024-03-23T02:26:02;4;4;
59153;PMS5003;44935;48.944;9.418;2024-03-23T02:28:30;2;2;
59153;PMS5003;44935;48.944;9.418;2024-03-23T02:30:56;6;2;
59153;PMS5003;44935;48.944;9.418;2024-03-23T02:33:23;3;3;
59153;PMS5003;44935;48.944;9.418;2024-03-23T02:35:50;3;3;
59153;PMS5003;44935;48.944;9.418;2024-03-23T02:38:22;2;2;
59153;PMS5003;44935;48.944;9.418;2024-03-23T02:40:48;3;2;
59153;PMS5003;44935;48.944;9.418;2024-03-23T02:43:15;2;2;
59153;PMS5003;44935;48.944;9.418;2024-03-23T02:45:42;2;2;
59153;PMS5003;44935;48.944;9.418;2024-03-23T02:48:09;3;3;
59153;PMS5003;44935;48.944;9.418;2024-03-23T02:50:36;2;2;
59153;PMS5003;44935;48.944;9.418;2024-03-23T02:53:03;1;1;
59153;PMS5003;44935;48.944;9.418;2024-03-23T02:55:30;2;2;
59153;PMS5003;44935;48.944;9.418;2024-03-23T02:57:57;1;1;
59153;PMS5003;44935;48.944;9.418;2024-03-23T03:00:24;1;1;
59153;PMS5003;44935;48.944;9.418;2024-03-23T03:02:50;2;2;
59153;PMS5003;44935;48.944;9.418;2024-03-23T03:05:17;1;0;
59153;PMS5003;44935;48.944;9.418;2024-03-23T03:07:44;1;1;
59153;PMS5003;44935;48.944;9.418;2024-03-23T03:10:11;2;2;
59153;PMS5003;44935;48.944;9.418;2024-03-23T03:12:38;2;2;
59153;PMS5003;44935;48.944;9.418;2024-03-23T03:15:06;1;1;
59153;PMS5003;44935;48.944;9.418;2024-03-23T03:17:34;4;4;
59153;PMS5003;44935;48.944;9.418;2024-03-23T03:20:01;4;2;
59153;PMS5003;44935;48.944;9.418;2024-03-23T03:22:28;2;2;
59153;PMS5003;44935;48.944;9.418;2024-03-23T03:24:55;2;2;
59153;PMS5003;44935;48.944;9.418;2024-03-23T03:27:22;3;2;
59153;PMS5003;44935;48.944;9.418;2024-03-23T03:29:49;1;1;
59153;PMS5003;44935;48.944;9.418;2024-03-23T03:32:16;1;1;
59153;PMS5003;44935;48.944;9.418;2024-03-23T03:34:43;4;3;
59153;PMS5003;44935;48.944;9.418;2024-03-23T03:37:10;2;2;
59153;PMS5003;44935;48.944;9.418;2024-03-23T03:39:36;3;2;
59153;PMS5003;44935;48.944;9.418;2024-03-23T03:42:03;1;1;
59153;PMS5003;44935;48.944;9.418;2024-03-23T03:44:30;2;1;
59153;PMS5003;44935;48.944;9.418;2024-03-23T03:46:57;2;1;
59153;PMS5003;44935;48.944;9.418;2024-03-23T03:49:24;0;0;
59153;PMS5003;44935;48.944;9.418;2024-03-23T03:51:53;5;2;
59153;PMS5003;44935;48.944;9.418;2024-03-23T03:54:20;1;1;
59153;PMS5003;44935;48.944;9.418;2024-03-23T03:56:47;0;0;
59153;PMS5003;44935;48.944;9.418;2024-03-23T03:59:14;1;1;
59153;PMS5003;44935;48.944;9.418;2024-03-23T04:01:42;1;1;
59153;PMS5003;44935;48.944;9.418;2024-03-23T04:04:09;0;0;
59153;PMS5003;44935;48.944;9.418;2024-03-23T04:06:36;3;3;
59153;PMS5003;44935;48.944;9.418;2024-03-23T04:09:02;2;2;
59153;PMS5003;44935;48.944;9.418;2024-03-23T04:11:29;2;2;
59153;PMS5003;44935;48.944;9.418;2024-03-23T04:14:01;3;1;
59153;PMS5003;44935;48.944;9.418;2024-03-23T04:16:29;1;1;
59153;PMS5003;44935;48.944;9.418;2024-03-23T04:18:58;2;2;
59153;PMS5003;44935;48.944;9.418;2024-03-23T04:21:25;1;1;
59153;PMS5003;44935;48.944;9.418;2024-03-23T04:23:51;1;1;
59153;PMS5003;44935;48.944;9.418;2024-03-23T04:26:18;2;2;
59153;PMS5003;44935;48.944;9.418;2024-03-23T04:28:45;2;2;
59153;PMS5003;44935;48.944;9.418;2024-03-23T04:31:12;1;1;
59153;PMS5003;44935;48.944;9.418;2024-03-23T04:33:39;2;2;
59153;PMS5003;44935;48.944;9.418;2024-03-23T04:36:06;2;2;
59153;PMS5003;44935;48.944;9.418;2024-03-23T04:38:33;3;3;
59153;PMS5003;44935;48.944;9.418;2024-03-23T04:41:00;2;2;
59153;PMS5003;44935;48.944;9.418;2024-03-23T04:43:27;1;1;
59153;PMS5003;44935;48.944;9.418;2024-03-23T04:45:55;1;1;
59153;PMS5003;44935;48.944;9.418;2024-03-23T04:48:22;4;3;
59153;PMS5003;44935;48.944;9.418;2024-03-23T04:50:54;2;2;
59153;PMS5003;44935;48.944;9.418;2024-03-23T04:53:22;3;3;
59153;PMS5003;44935;48.944;9.418;2024-03-23T04:55:49;4;2;
59153;PMS5003;44935;48.944;9.418;2024-03-23T04:58:16;5;3;
59153;PMS5003;44935;48.944;9.418;2024-03-23T05:00:42;2;2;
59153;PMS5003;44935;48.944;9.418;2024-03-23T05:03:09;4;3;
59153;PMS5003;44935;48.944;9.418;2024-03-23T05:05:36;2;2;
59153;PMS5003;44935;48.944;9.418;2024-03-23T05:08:03;4;4;
59153;PMS5003;44935;48.944;9.418;2024-03-23T05:10:31;3;3;
59153;PMS5003;44935;48.944;9.418;2024-03-23T05:12:58;3;3;
59153;PMS5003;44935;48.944;9.418;2024-03-23T05:15:25;7;5;
59153;PMS5003;44935;48.944;9.418;2024-03-23T05:17:52;5;4;
59153;PMS5003;44935;48.944;9.418;2024-03-23T05:20:19;6;4;
59153;PMS5003;44935;48.944;9.418;2024-03-23T05:22:46;4;3;
59153;PMS5003;44935;48.944;9.418;2024-03-23T05:25:13;1;1;
59153;PMS5003;44935;48.944;9.418;2024-03-23T05:27:39;5;5;
59153;PMS5003;44935;48.944;9.418;2024-03-23T05:30:07;5;4;
59153;PMS5003;44935;48.944;9.418;2024-03-23T05:32:34;3;3;
59153;PMS5003;44935;48.944;9.418;2024-03-23T05:35:01;4;3;
59153;PMS5003;44935;48.944;9.418;2024-03-23T05:37:28;5;4;
59153;PMS5003;44935;48.944;9.418;2024-03-23T05:39:55;6;6;
59153;PMS5003;44935;48.944;9.418;2024-03-23T05:42:22;8;7;
59153;PMS5003;44935;48.944;9.418;2024-03-23T05:44:49;4;4;
59153;PMS5003;44935;48.944;9.418;2024-03-23T05:47:16;8;6;
59153;PMS5003;44935;48.944;9.418;2024-03-23T05:49:43;7;3;
59153;PMS5003;44935;48.944;9.418;2024-03-23T05:52:10;4;4;
59153;PMS5003;44935;48.944;9.418;2024-03-23T05:54:37;5;5;
59153;PMS5003;44935;48.944;9.418;2024-03-23T05:57:04;7;4;
59153;PMS5003;44935;48.944;9.418;2024-03-23T05:59:32;5;4;
59153;PMS5003;44935;48.944;9.418;2024-03-23T06:01:59;2;2;
59153;PMS5003;44935;48.944;9.418;2024-03-23T06:04:26;4;4;
59153;PMS5003;44935;48.944;9.418;2024-03-23T06:06:52;5;5;
59153;PMS5003;44935;48.944;9.418;2024-03-23T06:09:19;2;2;
59153;PMS5003;44935;48.944;9.418;2024-03-23T06:11:48;4;4;
59153;PMS5003;44935;48.944;9.418;2024-03-23T06:14:14;4;4;
59153;PMS5003;44935;48.944;9.418;2024-03-23T06:16:41;4;4;
59153;PMS5003;44935;48.944;9.418;2024-03-23T06:19:09;2;2;
59153;PMS5003;44935;48.944;9.418;2024-03-23T06:21:36;1;1;
59153;PMS5003;44935;48.944;9.418;2024-03-23T06:24:03;1;1;
59153;PMS5003;44935;48.944;9.418;2024-03-23T06:26:30;1;1;
59153;PMS5003;44935;48.944;9.418;2024-03-23T06:28:57;1;1;
59153;PMS5003;44935;48.944;9.418;2024-03-23T06:31:24;2;1;
59153;PMS5003;44935;48.944;9.418;2024-03-23T06:33:51;1;1;
59153;PMS5003;44935;48.944;9.418;2024-03-23T06:36:18;0;0;
59153;PMS5003;44935;48.944;9.418;2024-03-23T06:38:44;1;1;
59153;PMS5003;44935;48.944;9.418;2024-03-23T06:41:11;2;2;
59153;PMS5003;44935;48.944;9.418;2024-03-23T06:43:38;2;2;
59153;PMS5003;44935;48.944;9.418;2024-03-23T06:46:05;1;1;
59153;PMS5003;44935;48.944;9.418;2024-03-23T06:48:32;1;1;
59153;PMS5003;44935;48.944;9.418;2024-03-23T06:50:59;1;1;
59153;PMS5003;44935;48.944;9.418;2024-03-23T06:53:26;1;1;
59153;PMS5003;44935;48.944;9.418;2024-03-23T06:55:53;2;1;
59153;PMS5003;44935;48.944;9.418;2024-03-23T06:58:21;1;1;
59153;PMS5003;44935;48.944;9.418;2024-03-23T07:00:48;0;0;
59153;PMS5003;44935;48.944;9.418;2024-03-23T07:03:16;0;0;
59153;PMS5003;44935;48.944;9.418;2024-03-23T07:05:44;0;0;
59153;PMS5003;44935;48.944;9.418;2024-03-23T07:08:10;0;0;
59153;PMS5003;44935;48.944;9.418;2024-03-23T07:10:39;0;0;
59153;PMS5003;44935;48.944;9.418;2024-03-23T07:13:06;0;0;
59153;PMS5003;44935;48.944;9.418;2024-03-23T07:15:33;0;0;
59153;PMS5003;44935;48.944;9.418;2024-03-23T07:18:00;0;0;
59153;PMS5003;44935;48.944;9.418;2024-03-23T07:20:27;0;0;
59153;PMS5003;44935;48.944;9.418;2024-03-23T07:22:54;0;0;
59153;PMS5003;44935;48.944;9.418;2024-03-23T07:25:21;0;0;
59153;PMS5003;44935;48.944;9.418;2024-03-23T07:27:48;0;0;
59153;PMS5003;44935;48.944;9.418;2024-03-23T07:30:15;0;0;
59153;PMS5003;44935;48.944;9.418;2024-03-23T07:32:44;0;0;
59153;PMS5003;44935;48.944;9.418;2024-03-23T07:35:10;0;0;
59153;PMS5003;44935;48.944;9.418;2024-03-23T07:37:37;0;0;
59153;PMS5003;44935;48.944;9.418;2024-03-23T07:40:05;1;0;
59153;PMS5003;44935;48.944;9.418;2024-03-23T07:42:33;0;0;
59153;PMS5003;44935;48.944;9.418;2024-03-23T07:44:59;0;0;
59153;PMS5003;44935;48.944;9.418;2024-03-23T07:47:26;0;0;
59153;PMS5003;44935;48.944;9.418;2024-03-23T07:49:53;0;0;
59153;PMS5003;44935;48.944;9.418;2024-03-23T07:52:20;0;0;
59153;PMS5003;44935;48.944;9.418;2024-03-23T07:54:47;0;0;
59153;PMS5003;44935;48.944;9.418;2024-03-23T07:57:14;0;0;
59153;PMS5003;44935;48.944;9.418;2024-03-23T07:59:41;2;0;
59153;PMS5003;44935;48.944;9.418;2024-03-23T08:02:07;1;0;
59153;PMS5003;44935;48.944;9.418;2024-03-23T08:04:34;0;0;
59153;PMS5003;44935;48.944;9.418;2024-03-23T08:07:01;0;0;
59153;PMS5003;44935;48.944;9.418;2024-03-23T08:09:28;0;0;
59153;PMS5003;44935;48.944;9.418;2024-03-23T08:11:55;0;0;
59153;PMS5003;44935;48.944;9.418;2024-03-23T08:14:22;0;0;
59153;PMS5003;44935;48.944;9.418;2024-03-23T08:16:49;0;0;
59153;PMS5003;44935;48.944;9.418;2024-03-23T08:19:15;0;0;
59153;PMS5003;44935;48.944;9.418;2024-03-23T08:21:42;2;0;
59153;PMS5003;44935;48.944;9.418;2024-03-23T08:24:09;0;0;
59153;PMS5003;44935;48.944;9.418;2024-03-23T08:26:36;0;0;
59153;PMS5003;44935;48.944;9.418;2024-03-23T08:29:03;0;0;
59153;PMS5003;44935;48.944;9.418;2024-03-23T08:31:30;0;0;
59153;PMS5003;44935;48.944;9.418;2024-03-23T08:33:57;0;0;
59153;PMS5003;44935;48.944;9.418;2024-03-23T08:36:24;0;0;
59153;PMS5003;44935;48.944;9.418;2024-03-23T08:38:50;0;0;
59153;PMS5003;44935;48.944;9.418;2024-03-23T08:41:17;0;0;
59153;PMS5003;44935;48.944;9.418;2024-03-23T08:43:44;0;0;
59153;PMS5003;44935;48.944;9.418;2024-03-23T08:46:11;0;0;
59153;PMS5003;44935;48.944;9.418;2024-03-23T08:48:40;0;0;
59153;PMS5003;44935;48.944;9.418;2024-03-23T08:51:09;0;0;
59153;PMS5003;44935;48.944;9.418;2024-03-23T08:53:37;0;0;
59153;PMS5003;44935;48.944;9.418;2024-03-23T08:56:05;4;1;
59153;PMS5003;44935;48.944;9.418;2024-03-23T08:58:33;0;0;
59153;PMS5003;44935;48.944;9.418;2024-03-23T09:01:03;0;0;
59153;PMS5003;44935;48.944;9.418;2024-03-23T09:03:31;0;0;
59153;PMS5003;44935;48.944;9.418;2024-03-23T09:05:58;0;0;
59153;PMS5003;44935;48.944;9.418;2024-03-23T09:08:26;0;0;
59153;PMS5003;44935;48.944;9.418;2024-03-23T09:10:53;0;0;
59153;PMS5003;44935;48.944;9.418;2024-03-23T09:13:20;0;0;
59153;PMS5003;44935;48.944;9.418;2024-03-23T09:15:47;0;0;
59153;PMS5003;44935;48.944;9.418;2024-03-23T09:18:15;3;1;
59153;PMS5003;44935;48.944;9.418;2024-03-23T09:20:43;0;0;
59153;PMS5003;44935;48.944;9.418;2024-03-23T09:23:10;0;0;
59153;PMS5003;44935;48.944;9.418;2024-03-23T09:25:37;0;0;
59153;PMS5003;44935;48.944;9.418;2024-03-23T09:28:05;0;0;
59153;PMS5003;44935;48.944;9.418;2024-03-23T09:30:33;0;0;
59153;PMS5003;44935;48.944;9.418;2024-03-23T09:33:00;0;0;
59153;PMS5003;44935;48.944;9.418;2024-03-23T09:35:27;0;0;
59153;PMS5003;44935;48.944;9.418;2024-03-23T09:37:54;1;1;
59153;PMS5003;44935;48.944;9.418;2024-03-23T09:40:21;0;0;
59153;PMS5003;44935;48.944;9.418;2024-03-23T09:42:49;1;0;
59153;PMS5003;44935;48.944;9.418;2024-03-23T09:45:17;0;0;
59153;PMS5003;44935;48.944;9.418;2024-03-23T09:47:48;0;0;
59153;PMS5003;44935;48.944;9.418;2024-03-23T09:50:15;0;0;
59153;PMS5003;44935;48.944;9.418;2024-03-23T09:52:43;0;0;
59153;PMS5003;44935;48.944;9.418;2024-03-23T09:55:13;1;0;
59153;PMS5003;44935;48.944;9.418;2024-03-23T09:57:39;1;1;
59153;PMS5003;44935;48.944;9.418;2024-03-23T10:00:08;2;0;
59153;PMS5003;44935;48.944;9.418;2024-03-23T10:02:36;1;1;
59153;PMS5003;44935;48.944;9.418;2024-03-23T10:05:04;0;0;
59153;PMS5003;44935;48.944;9.418;2024-03-23T10:07:46;0;0;
59153;PMS5003;44935;48.944;9.418;2024-03-23T10:10:13;0;0;
59153;PMS5003;44935;48.944;9.418;2024-03-23T10:12:43;0;0;
59153;PMS5003;44935;48.944;9.418;2024-03-23T10:15:15;0;0;
59153;PMS5003;44935;48.944;9.418;2024-03-23T10:17:45;0;0;
59153;PMS5003;44935;48.944;9.418;2024-03-23T10:20:12;0;0;
59153;PMS5003;44935;48.944;9.418;2024-03-23T10:22:39;1;0;
59153;PMS5003;44935;48.944;9.418;2024-03-23T10:25:07;0;0;
59153;PMS5003;44935;48.944;9.418;2024-03-23T10:27:35;1;1;
59153;PMS5003;44935;48.944;9.418;2024-03-23T10:30:10;0;0;
59153;PMS5003;44935;48.944;9.418;2024-03-23T10:32:38;0;0;
59153;PMS5003;44935;48.944;9.418;2024-03-23T10:35:20;0;0;
59153;PMS5003;44935;48.944;9.418;2024-03-23T10:37:47;0;0;
59153;PMS5003;44935;48.944;9.418;2024-03-23T10:40:15;2;0;
59153;PMS5003;44935;48.944;9.418;2024-03-23T10:42:42;0;0;
59153;PMS5003;44935;48.944;9.418;2024-03-23T10:45:10;0;0;
59153;PMS5003;44935;48.944;9.418;2024-03-23T10:47:37;0;0;
59153;PMS5003;44935;48.944;9.418;2024-03-23T10:50:04;2;2;
59153;PMS5003;44935;48.944;9.418;2024-03-23T10:52:32;1;1;
59153;PMS5003;44935;48.944;9.418;2024-03-23T10:54:59;0;0;
59153;PMS5003;44935;48.944;9.418;2024-03-23T10:57:30;0;0;
59153;PMS5003;44935;48.944;9.418;2024-03-23T11:00:02;1;1;
59153;PMS5003;44935;48.944;9.418;2024-03-23T11:02:31;0;0;
59153;PMS5003;44935;48.944;9.418;2024-03-23T11:04:58;0;0;
59153;PMS5003;44935;48.944;9.418;2024-03-23T11:07:28;1;1;
59153;PMS5003;44935;48.944;9.418;2024-03-23T11:09:56;0;0;
59153;PMS5003;44935;48.944;9.418;2024-03-23T11:12:30;0;0;
59153;PMS5003;44935;48.944;9.418;2024-03-23T11:14:58;1;1;
59153;PMS5003;44935;48.944;9.418;2024-03-23T11:17:28;0;0;
59153;PMS5003;44935;48.944;9.418;2024-03-23T11:19:56;2;2;
59153;PMS5003;44935;48.944;9.418;2024-03-23T11:22:40;0;0;
59153;PMS5003;44935;48.944;9.418;2024-03-23T11:25:12;0;0;
59153;PMS5003;44935;48.944;9.418;2024-03-23T11:27:44;0;0;
59153;PMS5003;44935;48.944;9.418;2024-03-23T11:30:12;0;0;
59153;PMS5003;44935;48.944;9.418;2024-03-23T11:32:41;1;1;
59153;PMS5003;44935;48.944;9.418;2024-03-23T11:35:09;1;0;
59153;PMS5003;44935;48.944;9.418;2024-03-23T11:37:37;0;0;
59153;PMS5003;44935;48.944;9.418;2024-03-23T11:40:20;1;1;
59153;PMS5003;44935;48.944;9.418;2024-03-23T11:42:54;1;0;
59153;PMS5003;44935;48.944;9.418;2024-03-23T11:45:22;0;0;
59153;PMS5003;44935;48.944;9.418;2024-03-23T11:48:00;2;1;
59153;PMS5003;44935;48.944;9.418;2024-03-23T11:50:29;5;2;
59153;PMS5003;44935;48.944;9.418;2024-03-23T11:53:06;1;1;
59153;PMS5003;44935;48.944;9.418;2024-03-23T11:55:50;2;2;
59153;PMS5003;44935;48.944;9.418;2024-03-23T11:58:18;0;0;
59153;PMS5003;44935;48.944;9.418;2024-03-23T12:00:50;0;0;
59153;PMS5003;44935;48.944;9.418;2024-03-23T12:03:17;2;1;
59153;PMS5003;44935;48.944;9.418;2024-03-23T12:05:47;0;0;
59153;PMS5003;44935;48.944;9.418;2024-03-23T12:08:16;0;0;
59153;PMS5003;44935;48.944;9.418;2024-03-23T12:10:46;0;0;
59153;PMS5003;44935;48.944;9.418;2024-03-23T12:13:16;0;0;
59153;PMS5003;44935;48.944;9.418;2024-03-23T12:15:44;1;1;
59153;PMS5003;44935;48.944;9.418;2024-03-23T12:18:13;0;0;
59153;PMS5003;44935;48.944;9.418;2024-03-23T12:20:40;0;0;
59153;PMS5003;44935;48.944;9.418;2024-03-23T12:23:09;2;2;
59153;PMS5003;44935;48.944;9.418;2024-03-23T12:25:37;1;1;
59153;PMS5003;44935;48.944;9.418;2024-03-23T12:28:04;0;0;
59153;PMS5003;44935;48.944;9.418;2024-03-23T12:30:34;1;1;
59153;PMS5003;44935;48.944;9.418;2024-03-23T12:33:01;1;0;
59153;PMS5003;44935;48.944;9.418;2024-03-23T12:35:29;1;1;
59153;PMS5003;44935;48.944;9.418;2024-03-23T12:37:56;0;0;
59153;PMS5003;44935;48.944;9.418;2024-03-23T12:40:23;1;1;
59153;PMS5003;44935;48.944;9.418;2024-03-23T12:42:50;0;0;
59153;PMS5003;44935;48.944;9.418;2024-03-23T12:45:16;2;1;
59153;PMS5003;44935;48.944;9.418;2024-03-23T12:47:43;1;0;
59153;PMS5003;44935;48.944;9.418;2024-03-23T12:50:10;0;0;
59153;PMS5003;44935;48.944;9.418;2024-03-23T12:52:37;2;1;
59153;PMS5003;44935;48.944;9.418;2024-03-23T12:55:04;0;0;
59153;PMS5003;44935;48.944;9.418;2024-03-23T12:57:32;0;0;
59153;PMS5003;44935;48.944;9.418;2024-03-23T12:59:59;1;0;
59153;PMS5003;44935;48.944;9.418;2024-03-23T13:02:26;0;0;
59153;PMS5003;44935;48.944;9.418;2024-03-23T13:04:53;0;0;
59153;PMS5003;44935;48.944;9.418;2024-03-23T13:07:20;1;1;
59153;PMS5003;44935;48.944;9.418;2024-03-23T13:09:49;0;0;
59153;PMS5003;44935;48.944;9.418;2024-03-23T13:12:17;1;1;
59153;PMS5003;44935;48.944;9.418;2024-03-23T13:14:44;2;2;
59153;PMS5003;44935;48.944;9.418;2024-03-23T13:17:11;0;0;
59153;PMS5003;44935;48.944;9.418;2024-03-23T13:19:37;1;1;
59153;PMS5003;44935;48.944;9.418;2024-03-23T13:22:04;0;0;
59153;PMS5003;44935;48.944;9.418;2024-03-23T13:24:32;1;1;
59153;PMS5003;44935;48.944;9.418;2024-03-23T13:26:59;0;0;
59153;PMS5003;44935;48.944;9.418;2024-03-23T13:29:26;0;0;
59153;PMS5003;44935;48.944;9.418;2024-03-23T13:31:52;0;0;
59153;PMS5003;44935;48.944;9.418;2024-03-23T13:34:19;1;1;
59153;PMS5003;44935;48.944;9.418;2024-03-23T13:36:46;0;0;
59153;PMS5003;44935;48.944;9.418;2024-03-23T13:39:14;0;0;
59153;PMS5003;44935;48.944;9.418;2024-03-23T13:41:42;0;0;
59153;PMS5003;44935;48.944;9.418;2024-03-23T13:44:11;3;1;
59153;PMS5003;44935;48.944;9.418;2024-03-23T13:46:38;0;0;
59153;PMS5003;44935;48.944;9.418;2024-03-23T13:49:06;1;1;
59153;PMS5003;44935;48.944;9.418;2024-03-23T13:51:33;0;0;
59153;PMS5003;44935;48.944;9.418;2024-03-23T13:53:59;0;0;
59153;PMS5003;44935;48.944;9.418;2024-03-23T13:56:26;0;0;
59153;PMS5003;44935;48.944;9.418;2024-03-23T13:58:54;0;0;
59153;PMS5003;44935;48.944;9.418;2024-03-23T14:01:22;1;1;
59153;PMS5003;44935;48.944;9.418;2024-03-23T14:03:50;0;0;
59153;PMS5003;44935;48.944;9.418;2024-03-23T14:06:16;0;0;
59153;PMS5003;44935;48.944;9.418;2024-03-23T14:08:43;0;0;
59153;PMS5003;44935;48.944;9.418;2024-03-23T14:11:10;0;0;
59153;PMS5003;44935;48.944;9.418;2024-03-23T14:13:37;0;0;
59153;PMS5003;44935;48.944;9.418;2024-03-23T14:16:04;0;0;
59153;PMS5003;44935;48.944;9.418;2024-03-23T14:18:32;0;0;
59153;PMS5003;44935;48.944;9.418;2024-03-23T14:20:59;0;0;
59153;PMS5003;44935;48.944;9.418;2024-03-23T14:23:27;2;1;
59153;PMS5003;44935;48.944;9.418;2024-03-23T14:25:57;0;0;
59153;PMS5003;44935;48.944;9.418;2024-03-23T14:28:23;0;0;
59153;PMS5003;44935;48.944;9.418;2024-03-23T14:30:50;0;0;
59153;PMS5003;44935;48.944;9.418;2024-03-23T14:33:18;0;0;
59153;PMS5003;44935;48.944;9.418;2024-03-23T14:35:51;0;0;
59153;PMS5003;44935;48.944;9.418;2024-03-23T14:38:19;0;0;
59153;PMS5003;44935;48.944;9.418;2024-03-23T14:40:46;0;0;
59153;PMS5003;44935;48.944;9.418;2024-03-23T14:43:13;1;0;
59153;PMS5003;44935;48.944;9.418;2024-03-23T14:45:45;0;0;
59153;PMS5003;44935;48.944;9.418;2024-03-23T14:48:32;1;1;
59153;PMS5003;44935;48.944;9.418;2024-03-23T14:51:00;0;0;
59153;PMS5003;44935;48.944;9.418;2024-03-23T14:53:28;0;0;
59153;PMS5003;44935;48.944;9.418;2024-03-23T14:55:55;0;0;
59153;PMS5003;44935;48.944;9.418;2024-03-23T14:58:21;0;0;
59153;PMS5003;44935;48.944;9.418;2024-03-23T15:00:48;0;0;
59153;PMS5003;44935;48.944;9.418;2024-03-23T15:03:15;0;0;
59153;PMS5003;44935;48.944;9.418;2024-03-23T15:05:42;0;0;
59153;PMS5003;44935;48.944;9.418;2024-03-23T15:08:18;0;0;
59153;PMS5003;44935;48.944;9.418;2024-03-23T15:10:44;0;0;
59153;PMS5003;44935;48.944;9.418;2024-03-23T15:13:11;0;0;
59153;PMS5003;44935;48.944;9.418;2024-03-23T15:15:38;0;0;
59153;PMS5003;44935;48.944;9.418;2024-03-23T15:18:05;2;0;
59153;PMS5003;44935;48.944;9.418;2024-03-23T15:20:33;2;0;
59153;PMS5003;44935;48.944;9.418;2024-03-23T15:23:00;0;0;
59153;PMS5003;44935;48.944;9.418;2024-03-23T15:25:27;0;0;
59153;PMS5003;44935;48.944;9.418;2024-03-23T15:27:53;0;0;
59153;PMS5003;44935;48.944;9.418;2024-03-23T15:30:20;0;0;
59153;PMS5003;44935;48.944;9.418;2024-03-23T15:32:47;0;0;
59153;PMS5003;44935;48.944;9.418;2024-03-23T15:35:14;0;0;
59153;PMS5003;44935;48.944;9.418;2024-03-23T15:37:41;0;0;
59153;PMS5003;44935;48.944;9.418;2024-03-23T15:40:13;0;0;
59153;PMS5003;44935;48.944;9.418;2024-03-23T15:42:40;0;0;
59153;PMS5003;44935;48.944;9.418;2024-03-23T15:45:07;0;0;
59153;PMS5003;44935;48.944;9.418;2024-03-23T15:47:35;0;0;
59153;PMS5003;44935;48.944;9.418;2024-03-23T15:50:02;0;0;
59153;PMS5003;44935;48.944;9.418;2024-03-23T15:52:30;0;0;
59153;PMS5003;44935;48.944;9.418;2024-03-23T15:54:57;0;0;
59153;PMS5003;44935;48.944;9.418;2024-03-23T15:57:24;0;0;
59153;PMS5003;44935;48.944;9.418;2024-03-23T15:59:51;0;0;
59153;PMS5003;44935;48.944;9.418;2024-03-23T16:02:17;0;0;
59153;PMS5003;44935;48.944;9.418;2024-03-23T16:04:44;0;0;
59153;PMS5003;44935;48.944;9.418;2024-03-23T16:07:11;0;0;
59153;PMS5003;44935;48.944;9.418;2024-03-23T16:09:38;0;0;
59153;PMS5003;44935;48.944;9.418;2024-03-23T16:12:05;0;0;
59153;PMS5003;44935;48.944;9.418;2024-03-23T16:14:32;0;0;
59153;PMS5003;44935;48.944;9.418;2024-03-23T16:16:59;0;0;
59153;PMS5003;44935;48.944;9.418;2024-03-23T16:19:26;0;0;
59153;PMS5003;44935;48.944;9.418;2024-03-23T16:21:52;2;1;
59153;PMS5003;44935;48.944;9.418;2024-03-23T16:24:19;0;0;
59153;PMS5003;44935;48.944;9.418;2024-03-23T16:26:46;0;0;
59153;PMS5003;44935;48.944;9.418;2024-03-23T16:29:13;0;0;
59153;PMS5003;44935;48.944;9.418;2024-03-23T16:31:40;0;0;
59153;PMS5003;44935;48.944;9.418;2024-03-23T16:34:07;0;0;
59153;PMS5003;44935;48.944;9.418;2024-03-23T16:36:34;0;0;
59153;PMS5003;44935;48.944;9.418;2024-03-23T16:39:01;0;0;
59153;PMS5003;44935;48.944;9.418;2024-03-23T16:41:27;0;0;
59153;PMS5003;44935;48.944;9.418;2024-03-23T16:43:54;0;0;
59153;PMS5003;44935;48.944;9.418;2024-03-23T16:46:21;0;0;
59153;PMS5003;44935;48.944;9.418;2024-03-23T16:48:48;0;0;
59153;PMS5003;44935;48.944;9.418;2024-03-23T16:51:15;0;0;
59153;PMS5003;44935;48.944;9.418;2024-03-23T16:53:42;0;0;
59153;PMS5003;44935;48.944;9.418;2024-03-23T16:56:09;0;0;
59153;PMS5003;44935;48.944;9.418;2024-03-23T16:58:36;0;0;
59153;PMS5003;44935;48.944;9.418;2024-03-23T17:01:04;0;0;
59153;PMS5003;44935;48.944;9.418;2024-03-23T17:03:32;0;0;
59153;PMS5003;44935;48.944;9.418;2024-03-23T17:05:58;0;0;
59153;PMS5003;44935;48.944;9.418;2024-03-23T17:08:29;0;0;
59153;PMS5003;44935;48.944;9.418;2024-03-23T17:10:57;0;0;
59153;PMS5003;44935;48.944;9.418;2024-03-23T17:13:24;0;0;
59153;PMS5003;44935;48.944;9.418;2024-03-23T17:15:51;0;0;
59153;PMS5003;44935;48.944;9.418;2024-03-23T17:18:19;0;0;
59153;PMS5003;44935;48.944;9.418;2024-03-23T17:20:46;0;0;
59153;PMS5003;44935;48.944;9.418;2024-03-23T17:23:13;2;2;
59153;PMS5003;44935;48.944;9.418;2024-03-23T17:25:40;0;0;
59153;PMS5003;44935;48.944;9.418;2024-03-23T17:28:06;0;0;
59153;PMS5003;44935;48.944;9.418;2024-03-23T17:30:33;0;0;
59153;PMS5003;44935;48.944;9.418;2024-03-23T17:33:00;0;0;
59153;PMS5003;44935;48.944;9.418;2024-03-23T17:35:27;0;0;
59153;PMS5003;44935;48.944;9.418;2024-03-23T17:37:54;0;0;
59153;PMS5003;44935;48.944;9.418;2024-03-23T17:40:21;0;0;
59153;PMS5003;44935;48.944;9.418;2024-03-23T17:42:48;0;0;
59153;PMS5003;44935;48.944;9.418;2024-03-23T17:45:15;0;0;
59153;PMS5003;44935;48.944;9.418;2024-03-23T17:47:41;0;0;